Time;durP1;ratioP1;P1;durP2;ratioP2;P2;SDS_P1;SDS_P2;PMS_P1;PMS_P2;Temp;Humidity;BMP_temperature;BMP_pressure;BME280_temperature;BME280_humidity;BME280_pressure;Samples;Min_cycle;Max_cycle;Signal;HPM_P1;HPM_P2
2020/12/29 00:07:39;;;;;;;3.10;2.70;;;;;;;;;;4851464;29;20218;-81
2020/12/29 00:10:19;;;;;;;2.80;2.30;;;;;;;;;;4851130;29;20218;-82
2020/12/29 00:13:06;;;;;;;3.40;2.63;;;;;;;;;;4853150;29;20237;-82
2020/12/29 00:15:54;;;;;;;4.23;2.60;;;;;;;;;;4852237;29;20206;-82
2020/12/29 00:18:38;;;;;;;5.60;3.00;;;;;;;;;;4852508;29;20213;-82
2020/12/29 00:21:28;;;;;;;3.73;2.87;;;;;;;;;;4833637;29;20603;-83
2020/12/29 00:24:04;;;;;;;2.53;2.30;;;;;;;;;;4846132;29;20210;-81
2020/12/29 00:27:09;;;;;;;2.93;2.50;;;;;;;;;;4849531;29;20205;-82
2020/12/29 00:29:53;;;;;;;3.53;2.70;;;;;;;;;;4870127;29;20212;-82
2020/12/29 00:32:38;;;;;;;4.40;2.53;;;;;;;;;;4872742;24;20236;-83
2020/12/29 00:35:16;;;;;;;3.83;2.40;;;;;;;;;;4902380;29;20196;-82
2020/12/29 00:37:52;;;;;;;3.73;2.57;;;;;;;;;;4875880;29;20226;-82
2020/12/29 00:40:24;;;;;;;2.33;2.13;;;;;;;;;;4868809;29;20698;-82
2020/12/29 00:42:57;;;;;;;3.80;2.80;;;;;;;;;;4875249;29;20231;-81
2020/12/29 00:45:29;;;;;;;2.80;2.13;;;;;;;;;;4867552;29;20213;-82
2020/12/29 00:48:04;;;;;;;3.27;2.23;;;;;;;;;;4862460;29;20208;-81
2020/12/29 00:50:44;;;;;;;3.37;2.70;;;;;;;;;;4881482;29;20210;-82
2020/12/29 00:53:35;;;;;;;2.73;2.20;;;;;;;;;;4850557;29;20228;-82
2020/12/29 00:56:14;;;;;;;2.70;2.23;;;;;;;;;;4878775;29;20213;-82
2020/12/29 00:58:51;;;;;;;2.43;1.80;;;;;;;;;;4852112;29;20208;-83
2020/12/29 01:01:32;;;;;;;2.60;2.10;;;;;;;;;;4865303;29;20198;-81
2020/12/29 01:04:32;;;;;;;2.03;1.80;;;;;;;;;;4849081;29;20204;-81
2020/12/29 01:07:11;;;;;;;3.57;2.30;;;;;;;;;;4866298;29;20205;-83
2020/12/29 01:09:48;;;;;;;3.60;1.90;;;;;;;;;;4874270;29;20208;-81
2020/12/29 01:12:21;;;;;;;2.33;1.90;;;;;;;;;;4863893;29;20235;-84
2020/12/29 01:14:56;;;;;;;2.37;1.87;;;;;;;;;;4876876;29;20216;-82
2020/12/29 01:17:35;;;;;;;3.40;1.80;;;;;;;;;;4866167;29;20216;-82
2020/12/29 01:20:15;;;;;;;1.67;1.23;;;;;;;;;;4882772;29;20217;-82
2020/12/29 01:22:57;;;;;;;1.87;1.27;;;;;;;;;;4868751;29;20612;-81
2020/12/29 01:26:15;;;;;;;1.20;1.10;;;;;;;;;;4892282;29;20220;-83
2020/12/29 01:29:05;;;;;;;2.53;1.60;;;;;;;;;;4847106;29;20212;-82
2020/12/29 01:31:42;;;;;;;1.80;1.30;;;;;;;;;;4876759;29;20221;-82
2020/12/29 01:34:18;;;;;;;1.33;1.10;;;;;;;;;;4869591;29;20213;-82
2020/12/29 01:36:55;;;;;;;1.87;1.40;;;;;;;;;;4870785;29;20209;-82
2020/12/29 01:39:44;;;;;;;1.40;1.30;;;;;;;;;;4887836;29;20227;-83
2020/12/29 01:42:48;;;;;;;1.23;0.97;;;;;;;;;;4893826;29;20217;-82
2020/12/29 01:45:27;;;;;;;1.40;1.23;;;;;;;;;;4856373;29;20213;-82
2020/12/29 01:48:06;;;;;;;1.20;0.93;;;;;;;;;;4878964;29;20209;-81
2020/12/29 01:50:41;;;;;;;1.50;1.30;;;;;;;;;;4893492;29;20577;-83
2020/12/29 01:53:38;;;;;;;1.10;1.00;;;;;;;;;;4851716;29;20227;-81
2020/12/29 01:56:11;;;;;;;1.10;1.00;;;;;;;;;;4862925;29;20216;-82
2020/12/29 01:58:49;;;;;;;1.63;1.00;;;;;;;;;;4855336;29;20209;-81
2020/12/29 02:01:26;;;;;;;1.37;0.90;;;;;;;;;;4879992;29;20204;-82
2020/12/29 02:07:12;;;;;;;1.17;1.07;;;;;;;;;;4878591;29;20204;-83
2020/12/29 02:14:33;;;;;;;2.00;1.13;;;;;;;;;;4895373;29;20184;-82
2020/12/29 05:58:07;;;;;;;1.50;0.90;;;;;;;;;;4874222;29;20233;-83
2020/12/29 06:00:42;;;;;;;1.67;0.90;;;;;;;;;;4863572;29;20281;-83
2020/12/29 06:22:46;;;;;;;1.57;0.60;;;;;;;;;;1628615;23;21788;-84
2020/12/29 06:25:38;;;;;;;4.07;0.70;;;;;;;;;;4869149;29;20226;-81
2020/12/29 06:28:18;;;;;;;3.70;1.03;;;;;;;;;;4869026;29;20213;-83
2020/12/29 06:30:56;;;;;;;2.87;0.83;;;;;;;;;;4820230;29;20210;-83
2020/12/29 06:33:34;;;;;;;1.90;0.70;;;;;;;;;;4848883;29;20240;-86
2020/12/29 06:36:10;;;;;;;1.70;0.60;;;;;;;;;;4855622;29;20201;-81
2020/12/29 06:38:52;;;;;;;2.33;0.50;;;;;;;;;;4867266;29;20185;-84
2020/12/29 06:41:28;;;;;;;2.23;0.60;;;;;;;;;;4853354;29;20197;-85
2020/12/29 06:44:04;;;;;;;0.53;0.50;;;;;;;;;;4867588;29;20217;-81
2020/12/29 06:46:38;;;;;;;1.10;0.60;;;;;;;;;;4885033;29;20228;-81
2020/12/29 06:49:29;;;;;;;1.87;0.70;;;;;;;;;;4862665;29;20200;-81
2020/12/29 06:52:21;;;;;;;1.47;0.47;;;;;;;;;;4869505;29;20245;-82
2020/12/29 06:55:01;;;;;;;0.90;0.60;;;;;;;;;;4852574;29;20221;-81
2020/12/29 06:57:52;;;;;;;1.37;0.90;;;;;;;;;;4857788;29;20573;-82
2020/12/29 07:00:28;;;;;;;1.77;0.60;;;;;;;;;;4864987;29;20198;-83
2020/12/29 07:03:14;;;;;;;2.43;0.80;;;;;;;;;;4867100;29;20222;-82
2020/12/29 07:06:09;;;;;;;1.10;0.60;;;;;;;;;;4854614;29;20205;-82
2020/12/29 07:09:26;;;;;;;1.23;0.80;;;;;;;;;;4864862;29;20229;-82
2020/12/29 07:12:22;;;;;;;1.07;0.50;;;;;;;;;;4880856;29;20229;-82
2020/12/29 07:15:12;;;;;;;1.40;0.93;;;;;;;;;;4867815;29;20209;-81
2020/12/29 07:17:57;;;;;;;0.73;0.73;;;;;;;;;;4845695;29;20206;-81
2020/12/29 07:20:48;;;;;;;0.50;0.40;;;;;;;;;;4859834;29;20213;-82
2020/12/29 07:23:48;;;;;;;0.93;0.53;;;;;;;;;;4866498;29;20241;-82
2020/12/29 07:27:05;;;;;;;5.87;1.13;;;;;;;;;;4865744;29;20216;-84
2020/12/29 07:36:09;;;;;;;2.13;0.60;;;;;;;;;;4904581;29;20193;-82
2020/12/29 11:19:54;;;;;;;1.33;0.57;;;;;;;;;;4734775;30;20340;-83
2020/12/29 11:22:41;;;;;;;1.60;0.70;;;;;;;;;;4800105;30;20237;-82
2020/12/29 11:25:21;;;;;;;0.97;0.50;;;;;;;;;;4818431;29;20223;-83
2020/12/29 11:27:57;;;;;;;1.87;0.60;;;;;;;;;;4823880;29;20216;-89
2020/12/29 11:30:35;;;;;;;1.17;0.63;;;;;;;;;;4832830;29;20195;-89
2020/12/29 11:33:11;;;;;;;2.83;0.60;;;;;;;;;;4839531;29;20344;-88
2020/12/29 11:36:21;;;;;;;0.70;0.60;;;;;;;;;;4839138;29;20200;-90
2020/12/29 11:45:49;;;;;;;1.13;0.63;;;;;;;;;;4836712;29;20328;-85
2020/12/29 11:48:27;;;;;;;2.73;0.70;;;;;;;;;;4822041;29;20347;-88
2020/12/29 11:50:55;;;;;;;1.90;0.60;;;;;;;;;;4815625;29;20211;-84
2020/12/29 11:53:24;;;;;;;1.43;0.90;;;;;;;;;;4809933;29;20255;-86
2020/12/29 11:55:52;;;;;;;1.90;0.90;;;;;;;;;;4838926;29;20222;-83
2020/12/29 11:58:19;;;;;;;0.60;0.60;;;;;;;;;;4834953;29;20222;-84
2020/12/29 12:00:47;;;;;;;0.90;0.70;;;;;;;;;;4810932;29;20231;-86
2020/12/29 12:03:23;;;;;;;1.63;0.70;;;;;;;;;;4826229;29;20231;-85
2020/12/29 12:05:51;;;;;;;0.60;0.60;;;;;;;;;;4811780;29;20214;-86
2020/12/29 12:08:19;;;;;;;2.93;0.50;;;;;;;;;;4808889;29;20207;-84
2020/12/29 12:10:47;;;;;;;0.70;0.70;;;;;;;;;;4809646;29;20222;-84
2020/12/29 12:13:15;;;;;;;1.17;0.67;;;;;;;;;;4817988;29;20757;-88
2020/12/29 12:15:55;;;;;;;3.07;0.60;;;;;;;;;;4828342;29;20211;-84
2020/12/29 12:18:36;;;;;;;0.50;0.50;;;;;;;;;;4827580;29;20199;-83
2020/12/29 12:21:04;;;;;;;3.30;0.90;;;;;;;;;;4846016;29;20207;-85
2020/12/29 12:23:32;;;;;;;1.37;0.60;;;;;;;;;;4830669;29;20234;-84
2020/12/29 12:26:01;;;;;;;0.73;0.57;;;;;;;;;;4878328;29;20221;-85
2020/12/29 12:28:29;;;;;;;1.37;0.60;;;;;;;;;;4871454;29;20218;-83
2020/12/29 12:30:56;;;;;;;1.10;0.60;;;;;;;;;;4900621;29;20224;-84
2020/12/29 12:33:24;;;;;;;1.13;0.60;;;;;;;;;;4878095;29;20236;-87
2020/12/29 12:35:51;;;;;;;0.60;0.60;;;;;;;;;;4874477;29;20209;-86
2020/12/29 12:38:19;;;;;;;0.50;0.50;;;;;;;;;;4897051;29;20615;-83
2020/12/29 12:40:46;;;;;;;2.27;1.17;;;;;;;;;;4894929;29;20217;-83
2020/12/29 12:43:15;;;;;;;1.13;0.60;;;;;;;;;;4893662;29;20228;-84
2020/12/29 12:45:42;;;;;;;0.50;0.50;;;;;;;;;;4891073;29;20225;-83
2020/12/29 12:48:10;;;;;;;0.70;0.50;;;;;;;;;;4866382;29;20672;-86
2020/12/29 12:50:37;;;;;;;0.93;0.60;;;;;;;;;;4879408;29;20212;-83
2020/12/29 12:53:06;;;;;;;0.77;0.60;;;;;;;;;;4881599;29;20232;-85
2020/12/29 12:55:34;;;;;;;1.47;0.63;;;;;;;;;;4888632;29;20225;-85
2020/12/29 12:58:02;;;;;;;1.97;0.70;;;;;;;;;;4889352;29;20220;-86
2020/12/29 13:00:32;;;;;;;0.60;0.60;;;;;;;;;;4868728;29;20208;-83
2020/12/29 13:03:00;;;;;;;0.53;0.40;;;;;;;;;;4885784;29;20697;-84
2020/12/29 13:05:28;;;;;;;0.50;0.50;;;;;;;;;;4898758;29;20213;-82
2020/12/29 13:07:55;;;;;;;0.47;0.47;;;;;;;;;;4873132;29;20201;-82
2020/12/29 13:10:23;;;;;;;1.03;0.80;;;;;;;;;;4901703;29;20209;-83
2020/12/29 13:12:51;;;;;;;0.70;0.70;;;;;;;;;;4891798;29;20229;-84
2020/12/29 13:15:19;;;;;;;0.83;0.63;;;;;;;;;;4901978;29;20233;-83
2020/12/29 13:17:47;;;;;;;1.50;0.60;;;;;;;;;;4869677;29;20213;-83
2020/12/29 13:20:16;;;;;;;1.10;0.80;;;;;;;;;;4857248;29;20212;-83
2020/12/29 13:22:43;;;;;;;1.87;0.70;;;;;;;;;;4869202;29;20684;-83
2020/12/29 13:25:17;;;;;;;0.93;0.70;;;;;;;;;;4868673;29;20210;-83
2020/12/29 13:27:49;;;;;;;1.03;0.50;;;;;;;;;;4871385;29;20715;-83
2020/12/29 13:30:20;;;;;;;1.53;0.70;;;;;;;;;;4907337;29;20219;-85
2020/12/29 13:32:50;;;;;;;0.70;0.60;;;;;;;;;;4875106;29;20232;-82
2020/12/29 13:35:19;;;;;;;1.83;0.70;;;;;;;;;;4869635;29;20599;-82
2020/12/29 13:37:49;;;;;;;2.73;0.50;;;;;;;;;;4870211;29;20209;-82
2020/12/29 13:40:22;;;;;;;3.97;0.60;;;;;;;;;;4901047;29;20391;-82
2020/12/29 13:43:07;;;;;;;0.90;0.60;;;;;;;;;;4882837;29;20625;-83
2020/12/29 13:45:35;;;;;;;0.50;0.47;;;;;;;;;;4868988;29;20240;-82
2020/12/29 13:48:05;;;;;;;0.87;0.87;;;;;;;;;;4892927;29;20208;-82
2020/12/29 13:55:23;;;;;;;2.07;0.80;;;;;;;;;;4862799;29;20233;-82
2020/12/29 14:07:00;;;;;;;1.30;0.70;;;;;;;;;;4891482;29;20671;-82
2020/12/29 16:37:29;;;;;;;0.97;0.90;;;;;;;;;;4886878;29;20217;-80
2020/12/29 16:40:13;;;;;;;1.33;0.80;;;;;;;;;;4867469;29;20213;-80
2020/12/29 16:46:04;;;;;;;1.63;0.70;;;;;;;;;;5055256;23;20275;-80
2020/12/29 16:48:38;;;;;;;0.80;0.60;;;;;;;;;;4865312;29;20205;-80
2020/12/29 16:51:14;;;;;;;1.17;0.93;;;;;;;;;;4851830;29;20210;-82
2020/12/29 16:53:54;;;;;;;1.83;1.17;;;;;;;;;;4881457;29;20221;-81
2020/12/29 16:56:46;;;;;;;0.73;0.73;;;;;;;;;;4864609;29;20228;-83
2020/12/29 16:59:22;;;;;;;2.17;1.10;;;;;;;;;;4859359;29;20224;-82
2020/12/29 17:01:55;;;;;;;2.73;0.90;;;;;;;;;;4865819;29;20236;-82
2020/12/29 17:04:30;;;;;;;1.83;1.07;;;;;;;;;;4872754;29;20215;-82
2020/12/29 17:07:37;;;;;;;1.43;1.10;;;;;;;;;;4877580;29;20209;-82
2020/12/29 17:51:59;;;;;;;1.50;0.90;;;;;;;;;;4853605;29;20576;-81
2020/12/29 17:55:30;;;;;;;1.03;0.80;;;;;;;;;;4854776;29;20198;-81
2020/12/29 17:58:09;;;;;;;0.73;0.70;;;;;;;;;;4856837;29;20209;-81
2020/12/29 18:00:50;;;;;;;2.07;0.60;;;;;;;;;;4849154;29;20209;-81
2020/12/29 18:03:21;;;;;;;0.47;0.40;;;;;;;;;;4858649;29;20225;-81
2020/12/29 18:05:58;;;;;;;1.90;0.70;;;;;;;;;;4841341;29;20213;-81
2020/12/29 18:08:32;;;;;;;1.30;0.70;;;;;;;;;;4847324;29;20206;-81
2020/12/29 18:11:05;;;;;;;2.13;0.70;;;;;;;;;;4845418;29;20213;-81
2020/12/29 18:13:40;;;;;;;1.03;0.50;;;;;;;;;;4850185;29;20243;-81
2020/12/29 18:16:13;;;;;;;0.40;0.40;;;;;;;;;;4865484;29;20224;-81
2020/12/29 18:18:45;;;;;;;0.60;0.50;;;;;;;;;;4878869;29;20206;-80
2020/12/29 18:21:23;;;;;;;1.60;0.53;;;;;;;;;;4853598;29;20209;-81
2020/12/29 18:24:04;;;;;;;0.50;0.50;;;;;;;;;;4856171;29;20193;-80
2020/12/29 18:26:36;;;;;;;1.10;0.70;;;;;;;;;;4866670;29;20199;-81
2020/12/29 18:29:09;;;;;;;2.03;0.60;;;;;;;;;;4872798;29;20210;-81
2020/12/29 18:41:24;;;;;;;1.37;0.60;;;;;;;;;;5933217;23;20428;-78
2020/12/29 18:43:58;;;;;;;0.53;0.53;;;;;;;;;;4793666;29;20594;-82
2020/12/29 18:46:30;;;;;;;0.50;0.50;;;;;;;;;;4809786;29;20219;-82
2020/12/29 18:49:04;;;;;;;1.17;0.77;;;;;;;;;;4805861;29;20201;-82
2020/12/29 18:51:37;;;;;;;0.83;0.60;;;;;;;;;;4800363;29;20583;-83
2020/12/29 18:54:12;;;;;;;0.80;0.70;;;;;;;;;;4808324;29;20679;-82
2020/12/29 18:56:54;;;;;;;1.63;1.30;;;;;;;;;;4788607;29;20223;-82
2020/12/29 18:59:38;;;;;;;3.93;2.00;;;;;;;;;;4799734;29;20213;-82
2020/12/29 19:02:11;;;;;;;2.70;1.83;;;;;;;;;;4785604;29;20236;-82
2020/12/29 19:05:07;;;;;;;1.47;0.93;;;;;;;;;;4806390;29;20203;-81
2020/12/29 19:07:39;;;;;;;3.53;1.50;;;;;;;;;;4811718;29;20208;-81
2020/12/29 19:10:15;;;;;;;1.13;0.90;;;;;;;;;;4794746;29;20578;-81
2020/12/29 19:12:53;;;;;;;1.37;1.03;;;;;;;;;;4796913;29;20235;-82
2020/12/29 19:15:28;;;;;;;2.97;1.10;;;;;;;;;;4809084;29;20219;-81
2020/12/29 19:18:04;;;;;;;1.60;0.90;;;;;;;;;;4793398;29;20288;-81
2020/12/29 19:20:35;;;;;;;2.30;0.83;;;;;;;;;;4800063;29;20215;-81
2020/12/29 19:23:12;;;;;;;1.23;0.60;;;;;;;;;;4772454;30;20231;-82
2020/12/29 19:25:45;;;;;;;0.97;0.70;;;;;;;;;;4805209;29;20209;-81
2020/12/29 19:28:32;;;;;;;1.63;0.70;;;;;;;;;;4795094;29;20204;-81
2020/12/29 19:31:07;;;;;;;1.30;0.70;;;;;;;;;;4794771;29;20208;-81
2020/12/29 19:33:43;;;;;;;1.37;0.70;;;;;;;;;;4808622;29;20593;-81
2020/12/29 19:36:17;;;;;;;2.13;1.10;;;;;;;;;;4809821;29;20220;-81
2020/12/29 19:38:50;;;;;;;0.73;0.70;;;;;;;;;;4783189;29;20692;-81
2020/12/29 19:41:27;;;;;;;1.33;1.00;;;;;;;;;;4799373;29;20219;-81
2020/12/29 19:44:00;;;;;;;1.33;1.07;;;;;;;;;;4799304;29;20215;-81
2020/12/29 19:46:30;;;;;;;2.30;0.90;;;;;;;;;;4790330;29;20688;-81
2020/12/29 19:49:04;;;;;;;1.37;0.90;;;;;;;;;;4802297;29;20312;-81
2020/12/29 19:51:39;;;;;;;1.40;1.00;;;;;;;;;;4795808;29;20219;-81
2020/12/29 19:54:10;;;;;;;2.10;0.90;;;;;;;;;;4801794;29;20208;-79
2020/12/29 19:56:41;;;;;;;2.23;0.90;;;;;;;;;;4799523;29;20228;-80
2020/12/29 19:59:14;;;;;;;1.30;0.70;;;;;;;;;;4819773;29;20220;-80
2020/12/29 20:01:48;;;;;;;0.97;0.63;;;;;;;;;;4805088;29;20205;-81
2020/12/29 20:04:18;;;;;;;1.00;0.60;;;;;;;;;;4791999;29;20208;-81
2020/12/29 20:06:49;;;;;;;0.70;0.57;;;;;;;;;;4777798;29;20683;-80
2020/12/29 20:09:20;;;;;;;2.10;1.10;;;;;;;;;;4802391;29;20215;-80
2020/12/29 20:11:49;;;;;;;0.97;0.80;;;;;;;;;;4800566;29;20244;-80
2020/12/29 20:14:19;;;;;;;1.27;0.80;;;;;;;;;;4776242;29;20713;-80
2020/12/29 20:16:50;;;;;;;1.33;0.70;;;;;;;;;;4791844;29;20236;-80
2020/12/29 20:19:21;;;;;;;0.87;0.60;;;;;;;;;;4790301;29;20216;-81
2020/12/29 20:21:52;;;;;;;1.87;0.80;;;;;;;;;;4805282;29;20239;-80
2020/12/29 20:24:24;;;;;;;1.37;0.93;;;;;;;;;;4795076;29;20204;-81
2020/12/29 20:26:54;;;;;;;1.33;0.60;;;;;;;;;;4773908;29;20571;-80
2020/12/29 20:29:27;;;;;;;3.17;0.80;;;;;;;;;;4784376;29;20223;-80
2020/12/29 20:31:59;;;;;;;1.13;0.50;;;;;;;;;;4795570;29;20236;-80
2020/12/29 20:34:29;;;;;;;0.47;0.47;;;;;;;;;;4785401;29;20213;-80
2020/12/29 20:37:04;;;;;;;1.57;0.60;;;;;;;;;;4786952;29;20570;-81
2020/12/29 20:39:36;;;;;;;1.03;0.70;;;;;;;;;;4798249;29;20228;-81
2020/12/29 20:42:10;;;;;;;2.67;0.50;;;;;;;;;;4788620;29;20246;-81
2020/12/29 20:44:44;;;;;;;1.57;0.63;;;;;;;;;;4789388;29;20706;-80
2020/12/29 20:47:16;;;;;;;0.97;0.60;;;;;;;;;;4789473;29;20683;-80
2020/12/29 20:49:49;;;;;;;1.67;0.80;;;;;;;;;;4790847;29;20212;-80
2020/12/29 20:52:21;;;;;;;4.20;0.70;;;;;;;;;;4785252;29;20240;-81
2020/12/29 20:54:59;;;;;;;1.90;0.73;;;;;;;;;;4773613;29;20754;-80
2020/12/29 20:57:31;;;;;;;0.97;0.60;;;;;;;;;;4788912;29;20235;-79
2020/12/29 21:00:07;;;;;;;1.70;0.60;;;;;;;;;;4797300;29;20730;-80
2020/12/29 21:02:39;;;;;;;0.63;0.60;;;;;;;;;;4784043;29;20738;-79
2020/12/29 21:05:21;;;;;;;1.67;0.80;;;;;;;;;;4784310;29;20215;-79
2020/12/29 21:07:53;;;;;;;0.60;0.60;;;;;;;;;;4785792;29;20215;-79
2020/12/29 21:10:24;;;;;;;0.73;0.50;;;;;;;;;;4783524;29;20219;-80
2020/12/29 21:12:54;;;;;;;1.70;0.60;;;;;;;;;;4791822;29;20240;-80
2020/12/29 21:15:26;;;;;;;0.90;0.63;;;;;;;;;;4795730;29;20216;-80
2020/12/29 21:17:57;;;;;;;0.93;0.60;;;;;;;;;;4783973;29;20224;-81
2020/12/29 21:20:28;;;;;;;1.17;0.60;;;;;;;;;;4797826;29;20209;-79
2020/12/29 21:22:58;;;;;;;1.13;0.87;;;;;;;;;;4793850;29;20237;-79
2020/12/29 21:25:28;;;;;;;1.07;0.50;;;;;;;;;;4787327;29;20600;-80
2020/12/29 21:27:57;;;;;;;1.43;0.80;;;;;;;;;;4800335;29;20216;-79
2020/12/29 21:30:28;;;;;;;1.47;0.80;;;;;;;;;;4788193;29;20574;-79
2020/12/29 21:32:57;;;;;;;0.53;0.50;;;;;;;;;;4787894;29;20232;-80
2020/12/29 21:35:26;;;;;;;0.70;0.70;;;;;;;;;;4770469;29;20208;-81
2020/12/29 21:37:55;;;;;;;2.30;0.70;;;;;;;;;;4786873;29;20233;-80
2020/12/29 21:40:26;;;;;;;1.23;0.70;;;;;;;;;;4803836;29;20219;-81
2020/12/29 21:42:57;;;;;;;2.93;0.70;;;;;;;;;;4788504;29;20613;-81
2020/12/29 21:45:29;;;;;;;1.17;0.80;;;;;;;;;;4784470;29;20224;-82
2020/12/29 21:47:59;;;;;;;1.27;0.70;;;;;;;;;;4782895;29;20216;-81
2020/12/29 21:50:30;;;;;;;1.83;0.70;;;;;;;;;;4786855;29;20215;-80
2020/12/29 21:53:01;;;;;;;0.70;0.50;;;;;;;;;;4765762;29;20243;-81
2020/12/29 21:55:31;;;;;;;0.70;0.60;;;;;;;;;;4789490;29;20208;-81
2020/12/29 21:58:03;;;;;;;2.73;0.80;;;;;;;;;;4799773;29;20231;-81
2020/12/29 22:00:34;;;;;;;1.30;0.50;;;;;;;;;;4800191;29;20664;-80
2020/12/29 22:03:06;;;;;;;1.53;0.60;;;;;;;;;;4773381;29;20225;-81
2020/12/29 22:05:36;;;;;;;1.63;0.70;;;;;;;;;;4804290;29;20212;-80
2020/12/29 22:08:07;;;;;;;2.13;1.23;;;;;;;;;;4788151;29;20224;-81
2020/12/29 22:10:37;;;;;;;0.63;0.60;;;;;;;;;;4785774;29;20224;-81
2020/12/29 22:13:11;;;;;;;1.13;0.93;;;;;;;;;;4772124;29;20232;-81
2020/12/29 22:15:43;;;;;;;1.67;0.70;;;;;;;;;;4781927;29;21180;-80
2020/12/29 22:18:14;;;;;;;1.60;0.70;;;;;;;;;;4791048;29;20232;-81
2020/12/29 22:20:45;;;;;;;2.53;0.70;;;;;;;;;;4783460;29;20216;-80
2020/12/29 22:23:15;;;;;;;1.00;0.80;;;;;;;;;;4800607;29;20237;-81
2020/12/29 22:25:47;;;;;;;1.00;0.70;;;;;;;;;;4771159;29;20615;-81
2020/12/29 22:28:19;;;;;;;1.80;0.60;;;;;;;;;;4786536;29;20234;-81
2020/12/29 22:30:51;;;;;;;3.60;0.60;;;;;;;;;;4793121;29;20706;-81
2020/12/29 22:33:22;;;;;;;0.93;0.63;;;;;;;;;;4775520;29;20233;-81
2020/12/29 22:35:54;;;;;;;1.37;0.70;;;;;;;;;;4787840;29;20216;-80
2020/12/29 22:38:25;;;;;;;0.70;0.50;;;;;;;;;;4773482;29;20260;-80
2020/12/29 22:40:57;;;;;;;1.03;0.80;;;;;;;;;;4790311;29;20208;-81
2020/12/29 22:43:29;;;;;;;1.80;0.80;;;;;;;;;;4789891;29;20239;-81
2020/12/29 22:46:08;;;;;;;1.23;0.73;;;;;;;;;;4784955;29;20208;-81
2020/12/29 22:48:39;;;;;;;1.20;0.70;;;;;;;;;;4782209;29;20205;-81
2020/12/29 22:51:15;;;;;;;1.23;0.70;;;;;;;;;;4777802;29;20209;-80
2020/12/29 22:53:54;;;;;;;0.80;0.60;;;;;;;;;;4791892;29;20243;-79
2020/12/29 22:56:37;;;;;;;0.70;0.57;;;;;;;;;;4778082;29;20211;-80
2020/12/29 23:24:57;;;;;;;1.33;0.60;;;;;;;;;;4718756;30;20223;-79
2020/12/29 23:32:22;;;;;;;0.40;0.40;;;;;;;;;;4744180;30;22919;-80
2020/12/29 23:35:22;;;;;;;0.40;0.40;;;;;;;;;;4737524;30;20372;-79
